Flight Track Log - Related Links

Times and Time Zones

All times are in EDT time to prevent confusion due to time zone crossing. See the EGF3968 flight status page for this flight to view local times or setup timezone preferences in your user account.

Time Position Orientation Groundspeed Altitude Reporting Facility
EDT Latitude Longitude Course Direction KTS MPH feet Rate Location/Type
Wed 12:57:00 PM 40.1294 -88.3292 333° Northwest 231 266 4,300  Level Chicago Center
Wed 12:58:00 PM 40.2594 -88.3957 335° Northwest  Level FlightAware Approximate
Wed 12:58:02 PM 40.1928 -88.3647 337° Northwest 258 297 6,500  Level Chicago Center
Wed 12:59:00 PM 40.3352 -88.4347 330° Northwest  Level FlightAware Approximate
Wed 12:59:04 PM 40.2594 -88.4042 336° Northwest 265 305 8,700  Level Chicago Center
Wed 01:00:00 PM 40.4074 -88.4870 339° North  Level FlightAware Approximate
Wed 01:00:06 PM 40.3325 -88.4478 336° Northwest 285 328 10,900  Level Chicago Center
Wed 01:01:00 PM 40.4817 -88.5276 337° Northwest  Level FlightAware Approximate
Wed 01:01:08 PM 40.4083 -88.4928 336° Northwest 299 344 12,400  Level Chicago Center
Wed 01:02:00 PM 40.5553 -88.5702 333° Northwest  Level FlightAware Approximate
Wed 01:02:10 PM 40.5092 -88.5511 336° Northwest 330 380 14,100  Level Chicago Center
Wed 01:03:12 PM 40.5978 -88.6022 336° Northwest 345 397 15,600 1,403 Climbing Chicago Center
Wed 01:04:14 PM 40.6911 -88.6328 346° North 351 404 17,000 1,403 Climbing Chicago Center
Wed 01:05:16 PM 40.7892 -88.6308 North 353 406 18,500 1,403 Climbing Chicago Center
Wed 01:06:18 PM 40.8878 -88.6336 359° North 356 410 19,900 726 Climbing Chicago Center
Wed 01:07:20 PM 40.9908 -88.6375 358° North 371 427 20,000 -1,597 Climbing Chicago Center
Wed 01:08:22 PM 41.1183 -88.6386 360° North 382 440 16,600 -2,758 Descending Chicago Center
Wed 01:09:24 PM 41.2231 -88.6422 359° North 377 434 14,300 -1,161 Descending Chicago Center
Wed 01:11:28 PM 41.4292 -88.6014 North 391 450 13,000 -839 Descending Chicago Center
Wed 01:12:30 PM 41.5075 -88.5042 43° Northeast 379 436 11,700 -968 Descending Chicago Center
Wed 01:13:32 PM 41.5811 -88.4108 43° Northeast 359 413 11,000 -339 Descending Chicago Center
Wed 01:14:34 PM 41.6472 -88.3289 43° Northeast 323 372 11,000 -48 Level Chicago Center
Wed 01:15:36 PM 41.7236 -88.2311 44° Northeast 316 364 10,900 -484 Descending Chicago Center
Wed 01:16:38 PM 41.7864 -88.1506 44° Northeast 314 361 10,000 -435 Descending Chicago Center
Wed 01:17:40 PM 41.8436 -88.0647 48° Northeast 311 358 10,000 -189 Level Chicago Center
Wed 01:18:45 PM 41.8833 -87.9500 65° Northeast 285 328 9,600 -816 Descending Chicago TRACON
Wed 01:19:45 PM 41.8833 -87.8500 90° East 275 316 8,300 -1,053 Descending Chicago TRACON
Wed 01:20:39 PM 41.8833 -87.7667 90° East 249 287 7,600 -833 Descending Chicago TRACON
Wed 01:21:33 PM 41.8833 -87.6833 90° East 231 266 6,800 -1,053 Descending Chicago TRACON
Wed 01:22:33 PM 41.9000 -87.6167 71° East 237 273 5,600 -1,050 Descending Chicago TRACON
Wed 01:23:33 PM 41.9500 -87.6167 360° North 194 223 4,700 -900 Descending Chicago TRACON

Login

Don't have an account? Register now (free) for customized features, flight alerts, and more!